createdAt,value
2022-09-27T00:01:10.271Z,13.82
2022-09-27T00:03:37.277Z,13.82
2022-09-27T00:06:06.603Z,13.81
2022-09-27T00:08:34.577Z,13.82
2022-09-27T00:11:07.364Z,13.77
2022-09-27T00:13:34.040Z,13.76
2022-09-27T00:16:02.936Z,13.77
2022-09-27T00:18:29.513Z,13.78
2022-09-27T00:20:56.101Z,13.77
2022-09-27T00:23:22.847Z,13.77
2022-09-27T00:25:57.276Z,13.77
2022-09-27T00:28:24.665Z,13.81
2022-09-27T00:30:51.809Z,13.78
2022-09-27T00:33:18.399Z,13.79
2022-09-27T00:35:46.204Z,13.82
2022-09-27T00:38:13.206Z,13.81
2022-09-27T00:40:40.186Z,13.82
2022-09-27T00:43:16.533Z,13.82
2022-09-27T00:45:45.918Z,13.83
2022-09-27T00:48:16.131Z,13.82
2022-09-27T00:50:48.050Z,13.82
2022-09-27T00:53:30.727Z,13.80
2022-09-27T00:56:01.448Z,13.81
2022-09-27T00:58:32.996Z,13.79
2022-09-27T01:01:05.710Z,13.79
2022-09-27T01:03:51.446Z,13.78
2022-09-27T01:06:20.553Z,13.78
2022-09-27T01:08:48.389Z,13.79
2022-09-27T01:11:46.098Z,13.78
2022-09-27T01:14:28.985Z,13.77
2022-09-27T01:16:58.635Z,13.77
2022-09-27T01:19:57.951Z,13.75
2022-09-27T01:22:37.795Z,13.75
2022-09-27T01:25:33.021Z,13.74
2022-09-27T01:28:05.830Z,13.73
2022-09-27T01:30:56.396Z,13.72
2022-09-27T01:33:43.312Z,13.70
2022-09-27T01:36:53.361Z,13.69
2022-09-27T01:39:47.775Z,13.69
2022-09-27T01:42:53.539Z,13.66
2022-09-27T01:45:36.932Z,13.67
2022-09-27T01:48:21.043Z,13.67
2022-09-27T01:50:57.171Z,13.66
2022-09-27T01:53:37.970Z,13.65
2022-09-27T01:56:35.002Z,13.64
2022-09-27T01:59:24.454Z,13.61
2022-09-27T02:02:05.134Z,13.60
2022-09-27T02:04:56.805Z,13.57
2022-09-27T02:07:28.574Z,13.56
2022-09-27T02:10:02.372Z,13.55
2022-09-27T02:12:52.143Z,13.54
2022-09-27T02:15:19.421Z,13.53
2022-09-27T02:18:15.924Z,13.52
2022-09-27T02:20:51.285Z,13.52
2022-09-27T02:23:23.273Z,13.52
2022-09-27T02:26:01.598Z,13.50
2022-09-27T02:28:42.508Z,13.47
2022-09-27T02:31:11.438Z,13.44
2022-09-27T02:34:11.301Z,13.36
2022-09-27T02:36:38.383Z,13.35
2022-09-27T02:39:05.164Z,13.30
2022-09-27T02:41:33.180Z,13.23
2022-09-27T02:44:04.690Z,13.19
2022-09-27T02:46:48.059Z,13.15
2022-09-27T02:49:30.041Z,13.12
2022-09-27T02:52:26.506Z,13.05
2022-09-27T02:55:15.020Z,13.03
2022-09-27T02:58:01.220Z,13.01
2022-09-27T03:00:44.341Z,13.00
2022-09-27T03:04:07.773Z,13.00
2022-09-27T03:06:35.973Z,13.00
2022-09-27T03:09:02.463Z,12.94
2022-09-27T03:11:29.226Z,13.03
2022-09-27T03:14:08.003Z,13.07
2022-09-27T03:16:38.960Z,13.08
2022-09-27T03:19:34.626Z,13.09
2022-09-27T03:22:21.166Z,13.12
2022-09-27T03:24:47.890Z,13.13
2022-09-27T03:27:14.495Z,13.14
2022-09-27T03:29:41.172Z,13.13
2022-09-27T03:32:09.247Z,13.13
2022-09-27T03:35:01.845Z,13.13
2022-09-27T03:37:28.591Z,13.13
2022-09-27T03:39:55.474Z,13.13
2022-09-27T03:42:21.988Z,13.12
2022-09-27T03:44:51.288Z,13.11
2022-09-27T03:47:17.849Z,13.10
2022-09-27T03:49:44.645Z,13.09
2022-09-27T03:52:11.212Z,13.09
2022-09-27T03:54:37.764Z,13.09
2022-09-27T03:57:04.420Z,13.06
2022-09-27T03:59:32.100Z,13.06
2022-09-27T04:02:18.710Z,13.06
2022-09-27T04:05:11.756Z,13.06
2022-09-27T04:07:38.352Z,13.06
2022-09-27T04:10:06.246Z,13.06
2022-09-27T04:12:34.789Z,13.04
2022-09-27T04:15:01.327Z,13.03
2022-09-27T04:17:46.031Z,13.02
2022-09-27T04:20:41.776Z,13.02
2022-09-27T04:23:12.386Z,13.03
2022-09-27T04:25:43.458Z,13.04
2022-09-27T04:28:30.371Z,13.03
2022-09-27T04:30:57.823Z,13.05
2022-09-27T04:33:47.764Z,13.06
2022-09-27T04:36:24.135Z,13.07
2022-09-27T04:39:02.884Z,13.09
2022-09-27T04:41:30.814Z,13.10
2022-09-27T04:43:59.517Z,13.11
2022-09-27T04:46:27.509Z,13.13
2022-09-27T04:48:54.104Z,13.15
2022-09-27T04:51:20.867Z,13.16
2022-09-27T04:53:47.689Z,13.17
2022-09-27T04:56:15.261Z,13.18
2022-09-27T04:58:42.091Z,13.20
2022-09-27T05:01:09.312Z,13.19
2022-09-27T05:03:54.751Z,13.19
2022-09-27T05:06:21.537Z,13.19
2022-09-27T05:08:48.091Z,13.19
2022-09-27T05:11:17.500Z,13.20
2022-09-27T05:14:05.088Z,13.20
2022-09-27T05:16:39.293Z,13.19
2022-09-27T05:19:34.803Z,13.19
2022-09-27T05:22:12.043Z,13.17
2022-09-27T05:24:38.581Z,13.16
2022-09-27T05:27:06.197Z,13.14
2022-09-27T05:29:32.889Z,13.13
2022-09-27T05:32:06.628Z,13.12
2022-09-27T05:34:33.207Z,13.13
2022-09-27T05:37:00.362Z,13.13
2022-09-27T05:39:30.141Z,13.08
2022-09-27T05:41:56.901Z,13.10
2022-09-27T05:44:24.047Z,13.06
2022-09-27T05:46:57.260Z,13.05
2022-09-27T05:49:23.921Z,13.03
2022-09-27T05:51:50.522Z,12.99
2022-09-27T05:54:17.132Z,12.99
2022-09-27T05:56:43.772Z,12.97
2022-09-27T05:59:36.554Z,12.95
2022-09-27T06:02:21.499Z,12.93
2022-09-27T06:05:07.255Z,12.92
2022-09-27T06:08:08.098Z,12.89
2022-09-27T06:10:41.087Z,12.76
2022-09-27T06:13:12.173Z,12.86
2022-09-27T06:15:43.484Z,12.88
2022-09-27T06:18:15.607Z,12.86
2022-09-27T06:20:44.336Z,12.89
2022-09-27T06:23:19.976Z,12.86
2022-09-27T06:25:49.402Z,12.87
2022-09-27T06:28:22.284Z,12.86
2022-09-27T06:30:52.642Z,12.85
2022-09-27T06:33:38.630Z,12.85
2022-09-27T06:36:07.262Z,12.85
2022-09-27T06:38:36.134Z,12.84
2022-09-27T06:41:11.368Z,12.82
2022-09-27T06:43:49.322Z,12.83
2022-09-27T06:46:34.310Z,12.83
2022-09-27T06:49:09.374Z,12.84
2022-09-27T06:51:36.021Z,12.85
2022-09-27T06:54:02.754Z,12.85
2022-09-27T06:56:29.389Z,12.84
2022-09-27T06:58:55.903Z,12.84
2022-09-27T07:01:44.413Z,12.83
2022-09-27T07:04:26.417Z,12.84
2022-09-27T07:07:13.506Z,12.86
2022-09-27T07:09:48.108Z,12.88
2022-09-27T07:12:14.783Z,12.93
2022-09-27T07:14:42.342Z,13.00
2022-09-27T07:17:12.914Z,13.04
2022-09-27T07:19:43.398Z,13.09
2022-09-27T07:22:11.075Z,13.11
2022-09-27T07:24:38.409Z,13.16
2022-09-27T07:27:06.009Z,13.20
2022-09-27T07:29:32.786Z,13.29
2022-09-27T07:31:59.884Z,13.33
2022-09-27T07:34:27.648Z,13.39
2022-09-27T07:36:59.278Z,13.47
2022-09-27T07:39:27.141Z,13.56
2022-09-27T07:41:53.676Z,13.63
2022-09-27T07:44:21.414Z,13.66
2022-09-27T07:47:10.578Z,13.73
2022-09-27T07:50:22.752Z,13.79
2022-09-27T07:53:13.206Z,13.80
2022-09-27T07:56:10.729Z,13.79
2022-09-27T07:58:57.578Z,13.81
2022-09-27T08:01:44.185Z,13.84
2022-09-27T08:04:30.858Z,13.89
2022-09-27T08:07:17.527Z,13.93
2022-09-27T08:10:08.831Z,14.02
2022-09-27T08:12:57.519Z,14.14
2022-09-27T08:15:44.130Z,14.19
2022-09-27T08:18:30.744Z,14.22
2022-09-27T08:21:32.678Z,14.27
2022-09-27T08:24:31.768Z,14.29
2022-09-27T08:27:25.344Z,14.32
2022-09-27T08:30:13.883Z,14.32
2022-09-27T08:33:02.171Z,14.30
2022-09-27T08:35:50.611Z,14.31
2022-09-27T08:38:37.258Z,14.23
2022-09-27T08:41:38.512Z,14.00
2022-09-27T08:44:59.732Z,13.71
2022-09-27T08:48:00.432Z,13.39
2022-09-27T08:50:48.608Z,13.15
2022-09-27T08:53:49.755Z,12.89
2022-09-27T08:56:37.588Z,12.70
2022-09-27T08:59:30.033Z,12.51
2022-09-27T09:02:22.816Z,12.45
2022-09-27T09:05:19.175Z,12.33
2022-09-27T09:08:18.435Z,12.23
2022-09-27T09:11:21.994Z,12.14
2022-09-27T09:14:54.476Z,12.08
2022-09-27T09:18:24.009Z,12.09
2022-09-27T09:21:49.222Z,12.18
2022-09-27T09:24:35.815Z,12.26
2022-09-27T09:27:31.194Z,12.34
2022-09-27T09:30:23.263Z,12.40
2022-09-27T09:33:25.600Z,12.43
2022-09-27T09:36:37.992Z,12.43
2022-09-27T09:39:33.083Z,12.44
2022-09-27T09:42:29.033Z,12.43
2022-09-27T09:45:21.104Z,12.47
2022-09-27T09:48:18.411Z,12.54
2022-09-27T09:51:11.009Z,12.59
2022-09-27T09:54:04.322Z,12.73
2022-09-27T09:57:15.361Z,12.87
2022-09-27T10:00:12.795Z,12.99
2022-09-27T10:03:03.675Z,13.12
2022-09-27T10:06:06.724Z,13.21
2022-09-27T10:09:05.718Z,13.24
2022-09-27T10:12:00.211Z,13.28
2022-09-27T10:14:52.410Z,13.30
2022-09-27T10:17:49.749Z,13.31
2022-09-27T10:20:44.331Z,13.29
2022-09-27T10:23:32.130Z,13.28
2022-09-27T10:26:38.453Z,13.23
2022-09-27T10:29:37.644Z,13.21
2022-09-27T10:32:33.341Z,13.19
2022-09-27T10:35:47.948Z,13.15
2022-09-27T10:38:52.578Z,13.06
2022-09-27T10:41:46.479Z,13.06
2022-09-27T10:44:39.897Z,13.03
2022-09-27T10:47:39.455Z,13.04
2022-09-27T10:50:59.243Z,13.05
2022-09-27T10:53:57.935Z,13.08
2022-09-27T10:57:05.606Z,13.09
2022-09-27T10:59:56.789Z,13.06
2022-09-27T11:02:43.610Z,13.11
2022-09-27T11:05:38.700Z,13.16
2022-09-27T11:08:31.389Z,13.15
2022-09-27T11:11:27.276Z,13.16
2022-09-27T11:14:23.136Z,13.13
2022-09-27T11:17:15.592Z,13.11
2022-09-27T11:20:19.159Z,13.14
2022-09-27T11:23:19.846Z,13.20
2022-09-27T11:26:36.667Z,13.32
2022-09-27T11:29:36.277Z,13.41
2022-09-27T11:33:07.298Z,13.58
2022-09-27T11:36:28.639Z,13.72
2022-09-27T11:39:23.380Z,13.90
2022-09-27T11:42:39.140Z,14.06
2022-09-27T11:49:19.739Z,14.21
2022-09-27T11:52:20.858Z,14.26
2022-09-27T11:55:14.364Z,14.27
2022-09-27T11:58:28.947Z,14.30
2022-09-27T12:01:39.628Z,14.36
2022-09-27T12:04:50.667Z,14.39
2022-09-27T12:07:49.412Z,14.34
2022-09-27T12:10:41.904Z,14.31
2022-09-27T12:13:40.396Z,14.29
2022-09-27T12:16:30.468Z,14.29
2022-09-27T12:19:26.904Z,14.25
2022-09-27T12:22:57.532Z,14.21
2022-09-27T12:25:56.273Z,14.18
2022-09-27T12:29:23.328Z,14.18
2022-09-27T12:32:42.783Z,14.26
2022-09-27T12:35:32.652Z,14.36
2022-09-27T12:38:47.170Z,14.46
2022-09-27T12:41:38.726Z,14.58
2022-09-27T12:45:01.727Z,14.78
2022-09-27T12:48:07.013Z,15.00
2022-09-27T12:51:01.969Z,15.17
2022-09-27T12:54:00.763Z,15.39
2022-09-27T12:57:32.821Z,15.45
2022-09-27T13:00:23.740Z,15.54
2022-09-27T13:03:43.377Z,15.62
2022-09-27T13:07:07.245Z,15.70
2022-09-27T13:10:29.594Z,15.69
2022-09-27T13:13:22.787Z,15.69
2022-09-27T13:16:10.375Z,15.68
2022-09-27T13:19:01.720Z,15.60
2022-09-27T13:21:51.262Z,15.54
2022-09-27T13:24:58.036Z,15.52
2022-09-27T13:28:49.371Z,15.45
2022-09-27T13:31:55.085Z,15.39
2022-09-27T13:35:22.559Z,15.34
2022-09-27T13:38:24.436Z,15.32
2022-09-27T13:41:21.268Z,15.35
2022-09-27T13:44:41.567Z,15.26
2022-09-27T13:47:30.154Z,15.29
2022-09-27T13:50:48.536Z,15.23
2022-09-27T13:53:40.171Z,15.12
2022-09-27T13:56:36.319Z,15.18
2022-09-27T13:59:30.610Z,15.18
2022-09-27T14:02:49.735Z,15.10
2022-09-27T14:05:51.504Z,15.03
2022-09-27T14:09:04.313Z,14.93
2022-09-27T14:11:56.792Z,14.84
2022-09-27T14:14:43.946Z,14.69
2022-09-27T14:17:31.840Z,14.55
2022-09-27T14:20:37.135Z,14.34
2022-09-27T14:23:26.259Z,14.11
2022-09-27T14:26:23.405Z,13.85
2022-09-27T14:29:21.038Z,13.66
2022-09-27T14:32:13.547Z,13.52
2022-09-27T14:35:15.210Z,13.41
2022-09-27T14:38:26.374Z,13.32
2022-09-27T14:41:13.803Z,13.28
2022-09-27T14:44:01.133Z,13.23
2022-09-27T14:46:48.075Z,13.22
2022-09-27T14:49:34.616Z,13.26
2022-09-27T14:52:40.683Z,13.22
2022-09-27T14:55:29.995Z,13.30
2022-09-27T14:58:35.986Z,13.32
2022-09-27T15:01:23.116Z,13.37
2022-09-27T15:04:15.166Z,13.35
2022-09-27T15:07:03.057Z,13.34
2022-09-27T15:09:49.898Z,13.23
2022-09-27T15:12:36.734Z,13.29
2022-09-27T15:15:27.091Z,13.28
2022-09-27T15:18:28.498Z,13.23
2022-09-27T15:21:28.648Z,13.22
2022-09-27T15:24:38.205Z,13.18
2022-09-27T15:27:26.155Z,13.20
2022-09-27T15:30:18.154Z,13.23
2022-09-27T15:33:06.532Z,13.24
2022-09-27T15:35:57.588Z,13.23
2022-09-27T15:38:45.188Z,13.27
2022-09-27T15:42:02.514Z,13.24
2022-09-27T15:44:53.926Z,13.23
2022-09-27T15:47:42.555Z,13.27
2022-09-27T15:50:29.054Z,13.29
2022-09-27T15:53:33.930Z,13.29
2022-09-27T15:56:20.456Z,13.31
2022-09-27T15:59:17.156Z,13.39
2022-09-27T16:02:12.809Z,13.45
2022-09-27T16:04:59.430Z,13.47
2022-09-27T16:07:45.981Z,13.50
2022-09-27T16:10:41.827Z,13.50
2022-09-27T16:13:32.702Z,13.47
2022-09-27T16:16:21.016Z,13.45
2022-09-27T16:19:07.608Z,13.41
2022-09-27T16:21:54.047Z,13.39
2022-09-27T16:24:43.140Z,13.36
2022-09-27T16:27:29.665Z,13.33
2022-09-27T16:30:17.167Z,13.32
2022-09-27T16:33:03.743Z,13.32
2022-09-27T16:35:55.289Z,13.29
2022-09-27T16:38:55.274Z,13.27
2022-09-27T16:41:41.772Z,13.28
2022-09-27T16:44:35.035Z,13.21
2022-09-27T16:47:35.059Z,13.16
2022-09-27T16:50:21.558Z,13.13
2022-09-27T16:53:14.817Z,13.10
2022-09-27T16:56:14.845Z,13.05
2022-09-27T16:59:03.264Z,13.03
2022-09-27T17:01:54.933Z,12.96
2022-09-27T17:04:54.640Z,12.94
2022-09-27T17:07:41.115Z,12.91
2022-09-27T17:10:34.392Z,12.86
2022-09-27T17:13:34.348Z,12.85
2022-09-27T17:16:21.699Z,12.85
2022-09-27T17:19:15.499Z,12.83
2022-09-27T17:22:14.428Z,12.83
2022-09-27T17:25:00.945Z,12.79
2022-09-27T17:27:54.008Z,12.72
2022-09-27T17:30:53.940Z,12.68
2022-09-27T17:33:45.290Z,12.62
2022-09-27T17:36:34.214Z,12.56
2022-09-27T17:39:33.659Z,12.51
2022-09-27T17:42:20.155Z,12.45
2022-09-27T17:45:13.484Z,12.39
2022-09-27T17:48:13.780Z,12.37
2022-09-27T17:51:00.313Z,12.29
2022-09-27T17:53:53.371Z,12.25
2022-09-27T17:56:53.664Z,12.21
2022-09-27T17:59:40.179Z,12.14
2022-09-27T18:02:33.122Z,12.09
2022-09-27T18:05:33.028Z,12.03
2022-09-27T18:08:19.506Z,11.98
2022-09-27T18:11:18.504Z,11.96
2022-09-27T18:14:13.035Z,11.93
2022-09-27T18:16:59.669Z,11.90
2022-09-27T18:19:52.508Z,11.90
2022-09-27T18:22:52.504Z,11.88
2022-09-27T18:25:39.005Z,11.85
2022-09-27T18:28:32.237Z,11.85
2022-09-27T18:31:32.619Z,11.83
2022-09-27T18:34:19.192Z,11.82
2022-09-27T18:37:12.076Z,11.80
2022-09-27T18:40:12.134Z,11.77
2022-09-27T18:42:58.634Z,11.73
2022-09-27T18:45:51.840Z,11.71
2022-09-27T18:48:52.440Z,11.67
2022-09-27T18:51:40.431Z,11.63
2022-09-27T18:54:31.578Z,11.61
2022-09-27T18:57:31.606Z,11.59
2022-09-27T19:00:18.134Z,11.58
2022-09-27T19:03:14.844Z,11.54
2022-09-27T19:06:19.743Z,11.56
2022-09-27T19:09:07.541Z,11.56
2022-09-27T19:11:54.232Z,11.59
2022-09-27T19:14:51.102Z,11.60
2022-09-27T19:17:37.648Z,11.64
2022-09-27T19:20:33.312Z,11.64
2022-09-27T19:23:00.337Z,11.67
2022-09-27T19:25:26.850Z,11.66
2022-09-27T19:27:53.545Z,11.66
2022-09-27T19:30:20.308Z,11.69
2022-09-27T19:32:47.090Z,11.70
2022-09-27T19:35:13.845Z,11.71
2022-09-27T19:37:40.797Z,11.71
2022-09-27T19:40:07.694Z,11.71
2022-09-27T19:42:34.158Z,11.72
2022-09-27T19:45:00.677Z,11.70
2022-09-27T19:47:27.216Z,11.72
2022-09-27T19:49:53.807Z,11.69
2022-09-27T19:52:20.300Z,11.67
2022-09-27T19:54:46.852Z,11.65
2022-09-27T19:57:13.444Z,11.63
2022-09-27T19:59:39.912Z,11.64
2022-09-27T20:02:06.828Z,11.64
2022-09-27T20:04:33.409Z,11.61
2022-09-27T20:06:59.859Z,11.64
2022-09-27T20:09:26.371Z,11.64
2022-09-27T20:11:52.949Z,11.66
2022-09-27T20:14:19.485Z,11.68
2022-09-27T20:16:46.055Z,11.68
2022-09-27T20:19:12.658Z,11.69
2022-09-27T20:21:39.343Z,11.70
2022-09-27T20:24:06.031Z,11.71
2022-09-27T20:26:33.815Z,11.71
2022-09-27T20:29:01.893Z,11.69
2022-09-27T20:31:31.094Z,11.70
2022-09-27T20:33:57.640Z,11.69
2022-09-27T20:36:29.577Z,11.67
2022-09-27T20:39:02.476Z,11.66
2022-09-27T20:41:32.013Z,11.66
2022-09-27T20:44:00.871Z,11.65
2022-09-27T20:46:27.576Z,11.65
2022-09-27T20:48:57.066Z,11.64
2022-09-27T20:51:24.468Z,11.66
2022-09-27T20:53:51.676Z,11.65
2022-09-27T20:56:30.569Z,11.65
2022-09-27T20:58:59.016Z,11.66
2022-09-27T21:01:27.272Z,11.67
2022-09-27T21:03:55.742Z,11.67
2022-09-27T21:06:22.725Z,11.67
2022-09-27T21:08:50.863Z,11.69
2022-09-27T21:11:18.110Z,11.56
2022-09-27T21:13:46.001Z,11.63
2022-09-27T21:16:23.717Z,11.61
2022-09-27T21:18:52.224Z,11.61
2022-09-27T21:21:19.824Z,11.60
2022-09-27T21:23:47.544Z,11.56
2022-09-27T21:26:16.682Z,11.53
2022-09-27T21:28:45.023Z,11.49
2022-09-27T21:31:22.294Z,11.43
2022-09-27T21:33:52.078Z,11.38
2022-09-27T21:36:19.008Z,11.34
2022-09-27T21:38:45.524Z,11.32
2022-09-27T21:41:15.723Z,11.19
2022-09-27T21:43:43.937Z,11.21
2022-09-27T21:46:20.278Z,11.16
2022-09-27T21:48:48.828Z,11.15
2022-09-27T21:51:19.203Z,11.13
2022-09-27T21:53:53.834Z,11.10
2022-09-27T21:56:21.595Z,11.08
2022-09-27T21:58:48.942Z,11.08
2022-09-27T22:01:17.205Z,11.02
2022-09-27T22:03:44.583Z,11.02
2022-09-27T22:06:17.851Z,10.99
2022-09-27T22:08:45.441Z,10.99
2022-09-27T22:11:21.018Z,10.98
2022-09-27T22:13:47.552Z,10.98
2022-09-27T22:16:16.512Z,10.98
2022-09-27T22:18:44.850Z,10.99
2022-09-27T22:21:14.232Z,10.99
2022-09-27T22:23:40.792Z,10.99
2022-09-27T22:26:16.250Z,10.99
2022-09-27T22:28:44.155Z,11.01
2022-09-27T22:31:12.149Z,10.99
2022-09-27T22:33:38.667Z,11.01
2022-09-27T22:36:05.680Z,11.05
2022-09-27T22:38:32.876Z,11.08
2022-09-27T22:41:01.799Z,11.09
2022-09-27T22:43:28.681Z,11.10
2022-09-27T22:45:56.290Z,11.10
2022-09-27T22:48:23.282Z,11.10
2022-09-27T22:50:49.810Z,11.10
2022-09-27T22:53:16.341Z,11.11
2022-09-27T22:55:42.810Z,11.13
2022-09-27T22:58:09.369Z,11.16
2022-09-27T23:00:37.988Z,11.18
2022-09-27T23:03:04.504Z,11.19
2022-09-27T23:05:31.063Z,11.21
2022-09-27T23:07:57.600Z,11.23
2022-09-27T23:10:24.060Z,11.24
2022-09-27T23:12:54.029Z,11.27
2022-09-27T23:15:20.612Z,11.29
2022-09-27T23:17:50.926Z,11.31
2022-09-27T23:20:17.799Z,11.33
2022-09-27T23:22:45.185Z,11.37
2022-09-27T23:25:11.658Z,11.37
2022-09-27T23:27:38.162Z,11.38
2022-09-27T23:30:05.117Z,11.38
2022-09-27T23:32:31.999Z,11.38
2022-09-27T23:34:58.634Z,11.38
2022-09-27T23:37:25.157Z,11.36
2022-09-27T23:39:51.662Z,11.35
2022-09-27T23:42:18.231Z,11.33
2022-09-27T23:44:44.847Z,11.34
2022-09-27T23:47:11.541Z,11.31
2022-09-27T23:49:38.000Z,11.32
2022-09-27T23:52:05.332Z,11.32
2022-09-27T23:54:32.573Z,11.32
2022-09-27T23:56:59.258Z,11.33
2022-09-27T23:59:25.741Z,11.36
